sensor_id;sensor_type;location;lat;lon;timestamp;temperature;humidity
71879;DHT22;59755;43.834;4.364;2023-03-26T00:00:44;13.20;75.00
71879;DHT22;59755;43.834;4.364;2023-03-26T00:03:10;13.20;74.90
71879;DHT22;59755;43.834;4.364;2023-03-26T00:05:37;13.20;74.90
71879;DHT22;59755;43.834;4.364;2023-03-26T00:08:02;13.30;74.60
71879;DHT22;59755;43.834;4.364;2023-03-26T00:10:28;13.30;74.60
71879;DHT22;59755;43.834;4.364;2023-03-26T00:12:54;13.30;74.40
71879;DHT22;59755;43.834;4.364;2023-03-26T00:15:19;13.30;74.30
71879;DHT22;59755;43.834;4.364;2023-03-26T00:17:45;13.30;74.30
71879;DHT22;59755;43.834;4.364;2023-03-26T00:20:12;13.30;74.10
71879;DHT22;59755;43.834;4.364;2023-03-26T00:22:38;13.10;74.90
71879;DHT22;59755;43.834;4.364;2023-03-26T00:25:04;13.10;74.80
71879;DHT22;59755;43.834;4.364;2023-03-26T00:27:31;13.10;74.70
71879;DHT22;59755;43.834;4.364;2023-03-26T00:29:58;13.10;74.10
71879;DHT22;59755;43.834;4.364;2023-03-26T00:32:26;13.00;74.70
71879;DHT22;59755;43.834;4.364;2023-03-26T00:34:55;12.90;74.80
71879;DHT22;59755;43.834;4.364;2023-03-26T00:37:21;12.90;74.80
71879;DHT22;59755;43.834;4.364;2023-03-26T00:39:54;12.90;74.60
71879;DHT22;59755;43.834;4.364;2023-03-26T00:42:24;12.70;75.10
71879;DHT22;59755;43.834;4.364;2023-03-26T00:44:49;12.70;75.40
71879;DHT22;59755;43.834;4.364;2023-03-26T00:47:19;12.80;75.30
71879;DHT22;59755;43.834;4.364;2023-03-26T00:49:45;12.90;74.90
71879;DHT22;59755;43.834;4.364;2023-03-26T00:52:13;12.90;75.20
71879;DHT22;59755;43.834;4.364;2023-03-26T00:54:38;13.00;75.10
71879;DHT22;59755;43.834;4.364;2023-03-26T00:57:04;13.00;75.20
71879;DHT22;59755;43.834;4.364;2023-03-26T00:59:31;13.00;75.10
71879;DHT22;59755;43.834;4.364;2023-03-26T01:02:00;12.90;75.50
71879;DHT22;59755;43.834;4.364;2023-03-26T01:06:52;13.00;75.50
71879;DHT22;59755;43.834;4.364;2023-03-26T01:09:20;13.00;75.40
71879;DHT22;59755;43.834;4.364;2023-03-26T01:11:46;13.00;75.50
71879;DHT22;59755;43.834;4.364;2023-03-26T01:14:17;13.00;75.70
71879;DHT22;59755;43.834;4.364;2023-03-26T01:16:45;13.00;76.00
71879;DHT22;59755;43.834;4.364;2023-03-26T01:21:56;12.70;77.40
71879;DHT22;59755;43.834;4.364;2023-03-26T01:24:21;12.70;77.60
71879;DHT22;59755;43.834;4.364;2023-03-26T01:29:18;12.70;77.80
71879;DHT22;59755;43.834;4.364;2023-03-26T01:34:38;12.60;78.40
71879;DHT22;59755;43.834;4.364;2023-03-26T01:37:12;12.60;78.40
71879;DHT22;59755;43.834;4.364;2023-03-26T01:39:45;12.70;77.90
71879;DHT22;59755;43.834;4.364;2023-03-26T01:42:20;12.70;78.00
71879;DHT22;59755;43.834;4.364;2023-03-26T01:44:51;12.70;78.40
71879;DHT22;59755;43.834;4.364;2023-03-26T01:47:20;12.70;78.30
71879;DHT22;59755;43.834;4.364;2023-03-26T01:49:45;12.70;78.40
71879;DHT22;59755;43.834;4.364;2023-03-26T01:52:12;12.80;78.00
71879;DHT22;59755;43.834;4.364;2023-03-26T01:54:38;12.70;78.40
71879;DHT22;59755;43.834;4.364;2023-03-26T01:57:18;12.80;78.30
71879;DHT22;59755;43.834;4.364;2023-03-26T01:59:54;12.90;78.10
71879;DHT22;59755;43.834;4.364;2023-03-26T02:02:29;12.80;78.20
71879;DHT22;59755;43.834;4.364;2023-03-26T02:05:04;12.90;78.20
71879;DHT22;59755;43.834;4.364;2023-03-26T02:07:34;12.90;77.90
71879;DHT22;59755;43.834;4.364;2023-03-26T02:10:23;12.80;78.10
71879;DHT22;59755;43.834;4.364;2023-03-26T02:12:50;12.80;78.20
71879;DHT22;59755;43.834;4.364;2023-03-26T02:15:16;12.90;78.20
71879;DHT22;59755;43.834;4.364;2023-03-26T02:17:42;13.00;77.50
71879;DHT22;59755;43.834;4.364;2023-03-26T02:20:08;13.00;77.60
71879;DHT22;59755;43.834;4.364;2023-03-26T02:22:35;13.00;77.70
71879;DHT22;59755;43.834;4.364;2023-03-26T02:25:14;13.00;77.50
71879;DHT22;59755;43.834;4.364;2023-03-26T02:27:41;13.00;77.50
71879;DHT22;59755;43.834;4.364;2023-03-26T02:30:07;13.10;77.40
71879;DHT22;59755;43.834;4.364;2023-03-26T02:32:33;13.10;77.20
71879;DHT22;59755;43.834;4.364;2023-03-26T02:34:59;13.00;77.60
71879;DHT22;59755;43.834;4.364;2023-03-26T02:37:25;13.00;77.70
71879;DHT22;59755;43.834;4.364;2023-03-26T02:39:51;13.10;77.60
71879;DHT22;59755;43.834;4.364;2023-03-26T02:42:17;13.00;77.70
71879;DHT22;59755;43.834;4.364;2023-03-26T02:44:42;13.00;77.70
71879;DHT22;59755;43.834;4.364;2023-03-26T02:47:08;13.00;77.80
71879;DHT22;59755;43.834;4.364;2023-03-26T02:49:33;13.00;77.80
71879;DHT22;59755;43.834;4.364;2023-03-26T02:51:59;13.10;77.50
71879;DHT22;59755;43.834;4.364;2023-03-26T02:54:25;13.00;78.00
71879;DHT22;59755;43.834;4.364;2023-03-26T02:56:51;12.90;78.30
71879;DHT22;59755;43.834;4.364;2023-03-26T02:59:17;12.90;78.50
71879;DHT22;59755;43.834;4.364;2023-03-26T03:01:42;12.90;78.30
71879;DHT22;59755;43.834;4.364;2023-03-26T03:04:11;13.00;78.00
71879;DHT22;59755;43.834;4.364;2023-03-26T03:06:37;13.00;77.90
71879;DHT22;59755;43.834;4.364;2023-03-26T03:09:03;13.10;77.70
71879;DHT22;59755;43.834;4.364;2023-03-26T03:11:29;13.00;77.80
71879;DHT22;59755;43.834;4.364;2023-03-26T03:13:55;13.10;77.70
71879;DHT22;59755;43.834;4.364;2023-03-26T03:16:20;13.10;77.50
71879;DHT22;59755;43.834;4.364;2023-03-26T03:18:46;13.00;77.70
71879;DHT22;59755;43.834;4.364;2023-03-26T03:21:22;13.00;77.90
71879;DHT22;59755;43.834;4.364;2023-03-26T03:23:48;13.10;77.60
71879;DHT22;59755;43.834;4.364;2023-03-26T03:26:14;13.20;77.30
71879;DHT22;59755;43.834;4.364;2023-03-26T03:28:40;13.00;78.00
71879;DHT22;59755;43.834;4.364;2023-03-26T03:31:06;13.10;77.70
71879;DHT22;59755;43.834;4.364;2023-03-26T03:33:33;13.10;77.80
71879;DHT22;59755;43.834;4.364;2023-03-26T03:35:59;13.10;77.60
71879;DHT22;59755;43.834;4.364;2023-03-26T03:38:24;13.00;78.00
71879;DHT22;59755;43.834;4.364;2023-03-26T03:40:50;13.00;77.90
71879;DHT22;59755;43.834;4.364;2023-03-26T03:43:17;13.00;77.90
71879;DHT22;59755;43.834;4.364;2023-03-26T03:45:43;13.10;77.70
71879;DHT22;59755;43.834;4.364;2023-03-26T03:48:08;13.10;77.80
71879;DHT22;59755;43.834;4.364;2023-03-26T03:50:34;13.00;77.80
71879;DHT22;59755;43.834;4.364;2023-03-26T03:53:00;13.00;77.80
71879;DHT22;59755;43.834;4.364;2023-03-26T03:55:25;13.10;77.80
71879;DHT22;59755;43.834;4.364;2023-03-26T03:57:52;13.10;77.70
71879;DHT22;59755;43.834;4.364;2023-03-26T04:00:18;13.00;77.80
71879;DHT22;59755;43.834;4.364;2023-03-26T04:02:43;13.00;77.90
71879;DHT22;59755;43.834;4.364;2023-03-26T04:05:10;13.10;77.80
71879;DHT22;59755;43.834;4.364;2023-03-26T04:07:36;13.00;78.00
71879;DHT22;59755;43.834;4.364;2023-03-26T04:10:03;13.00;78.10
71879;DHT22;59755;43.834;4.364;2023-03-26T04:12:29;13.00;77.90
71879;DHT22;59755;43.834;4.364;2023-03-26T04:14:55;13.10;77.50
71879;DHT22;59755;43.834;4.364;2023-03-26T04:17:21;13.10;77.40
71879;DHT22;59755;43.834;4.364;2023-03-26T04:19:50;13.10;77.40
71879;DHT22;59755;43.834;4.364;2023-03-26T04:22:19;13.00;77.60
71879;DHT22;59755;43.834;4.364;2023-03-26T04:24:46;13.00;77.50
71879;DHT22;59755;43.834;4.364;2023-03-26T04:27:17;13.10;77.20
71879;DHT22;59755;43.834;4.364;2023-03-26T04:29:45;13.10;77.20
71879;DHT22;59755;43.834;4.364;2023-03-26T04:32:32;13.10;77.10
71879;DHT22;59755;43.834;4.364;2023-03-26T04:35:03;13.10;77.10
71879;DHT22;59755;43.834;4.364;2023-03-26T04:37:30;13.20;77.00
71879;DHT22;59755;43.834;4.364;2023-03-26T04:39:59;13.20;76.90
71879;DHT22;59755;43.834;4.364;2023-03-26T04:42:25;13.10;77.20
71879;DHT22;59755;43.834;4.364;2023-03-26T04:44:50;13.10;77.00
71879;DHT22;59755;43.834;4.364;2023-03-26T04:47:16;13.10;77.10
71879;DHT22;59755;43.834;4.364;2023-03-26T04:49:43;13.10;77.30
71879;DHT22;59755;43.834;4.364;2023-03-26T04:52:09;13.10;77.00
71879;DHT22;59755;43.834;4.364;2023-03-26T04:54:35;13.20;76.90
71879;DHT22;59755;43.834;4.364;2023-03-26T04:57:05;13.20;76.80
71879;DHT22;59755;43.834;4.364;2023-03-26T04:59:32;13.10;77.00
71879;DHT22;59755;43.834;4.364;2023-03-26T05:02:03;13.10;77.00
71879;DHT22;59755;43.834;4.364;2023-03-26T05:04:29;13.10;77.00
71879;DHT22;59755;43.834;4.364;2023-03-26T05:06:56;13.10;76.80
71879;DHT22;59755;43.834;4.364;2023-03-26T05:09:26;13.10;77.10
71879;DHT22;59755;43.834;4.364;2023-03-26T05:11:51;13.10;77.10
71879;DHT22;59755;43.834;4.364;2023-03-26T05:14:17;13.00;77.50
71879;DHT22;59755;43.834;4.364;2023-03-26T05:16:44;13.00;77.50
71879;DHT22;59755;43.834;4.364;2023-03-26T05:19:10;12.90;77.50
71879;DHT22;59755;43.834;4.364;2023-03-26T05:21:36;12.90;77.50
71879;DHT22;59755;43.834;4.364;2023-03-26T05:24:01;12.90;77.70
71879;DHT22;59755;43.834;4.364;2023-03-26T05:26:27;12.80;78.00
71879;DHT22;59755;43.834;4.364;2023-03-26T05:28:53;12.80;77.80
71879;DHT22;59755;43.834;4.364;2023-03-26T05:31:19;12.80;77.80
71879;DHT22;59755;43.834;4.364;2023-03-26T05:33:48;12.70;78.10
71879;DHT22;59755;43.834;4.364;2023-03-26T05:36:14;12.80;77.80
71879;DHT22;59755;43.834;4.364;2023-03-26T05:38:41;12.80;77.40
71879;DHT22;59755;43.834;4.364;2023-03-26T05:41:11;12.80;77.50
71879;DHT22;59755;43.834;4.364;2023-03-26T05:43:37;12.80;77.60
71879;DHT22;59755;43.834;4.364;2023-03-26T05:46:02;12.70;77.60
71879;DHT22;59755;43.834;4.364;2023-03-26T05:48:28;12.70;77.70
71879;DHT22;59755;43.834;4.364;2023-03-26T05:50:54;12.60;77.50
71879;DHT22;59755;43.834;4.364;2023-03-26T05:53:21;12.60;77.60
71879;DHT22;59755;43.834;4.364;2023-03-26T05:55:47;12.50;77.40
71879;DHT22;59755;43.834;4.364;2023-03-26T05:58:26;12.40;77.40
71879;DHT22;59755;43.834;4.364;2023-03-26T06:00:59;12.40;77.30
71879;DHT22;59755;43.834;4.364;2023-03-26T06:03:26;12.30;77.70
71879;DHT22;59755;43.834;4.364;2023-03-26T06:05:52;12.30;77.60
71879;DHT22;59755;43.834;4.364;2023-03-26T06:08:18;12.40;77.40
71879;DHT22;59755;43.834;4.364;2023-03-26T06:10:44;12.40;77.10
71879;DHT22;59755;43.834;4.364;2023-03-26T06:13:10;12.40;77.20
71879;DHT22;59755;43.834;4.364;2023-03-26T06:15:37;12.40;77.40
71879;DHT22;59755;43.834;4.364;2023-03-26T06:18:03;12.40;77.20
71879;DHT22;59755;43.834;4.364;2023-03-26T06:20:29;12.30;77.00
71879;DHT22;59755;43.834;4.364;2023-03-26T06:22:54;12.30;76.90
71879;DHT22;59755;43.834;4.364;2023-03-26T06:25:20;12.40;76.50
71879;DHT22;59755;43.834;4.364;2023-03-26T06:27:45;12.40;76.20
71879;DHT22;59755;43.834;4.364;2023-03-26T06:30:11;12.50;76.10
71879;DHT22;59755;43.834;4.364;2023-03-26T06:32:37;12.40;76.30
71879;DHT22;59755;43.834;4.364;2023-03-26T06:35:02;12.40;76.40
71879;DHT22;59755;43.834;4.364;2023-03-26T06:37:28;12.40;76.50
71879;DHT22;59755;43.834;4.364;2023-03-26T06:39:53;12.40;76.50
71879;DHT22;59755;43.834;4.364;2023-03-26T06:42:19;12.50;76.50
71879;DHT22;59755;43.834;4.364;2023-03-26T06:44:45;12.50;76.10
71879;DHT22;59755;43.834;4.364;2023-03-26T06:47:10;12.60;76.10
71879;DHT22;59755;43.834;4.364;2023-03-26T06:49:36;12.60;76.20
71879;DHT22;59755;43.834;4.364;2023-03-26T06:52:02;12.60;76.30
71879;DHT22;59755;43.834;4.364;2023-03-26T06:54:28;12.70;76.10
71879;DHT22;59755;43.834;4.364;2023-03-26T06:56:53;12.80;75.80
71879;DHT22;59755;43.834;4.364;2023-03-26T06:59:20;12.90;75.60
71879;DHT22;59755;43.834;4.364;2023-03-26T07:01:45;12.80;75.90
71879;DHT22;59755;43.834;4.364;2023-03-26T07:04:11;12.70;76.50
71879;DHT22;59755;43.834;4.364;2023-03-26T07:06:37;12.50;77.70
71879;DHT22;59755;43.834;4.364;2023-03-26T07:09:02;12.40;78.50
71879;DHT22;59755;43.834;4.364;2023-03-26T07:11:28;12.30;79.30
71879;DHT22;59755;43.834;4.364;2023-03-26T07:13:53;12.50;78.60
71879;DHT22;59755;43.834;4.364;2023-03-26T07:16:20;12.60;78.30
71879;DHT22;59755;43.834;4.364;2023-03-26T07:18:46;12.60;78.20
71879;DHT22;59755;43.834;4.364;2023-03-26T07:21:12;12.80;77.60
71879;DHT22;59755;43.834;4.364;2023-03-26T07:23:38;12.90;77.40
71879;DHT22;59755;43.834;4.364;2023-03-26T07:26:10;13.00;76.80
71879;DHT22;59755;43.834;4.364;2023-03-26T07:28:48;13.00;76.60
71879;DHT22;59755;43.834;4.364;2023-03-26T07:31:23;13.10;76.00
71879;DHT22;59755;43.834;4.364;2023-03-26T07:33:57;13.20;75.80
71879;DHT22;59755;43.834;4.364;2023-03-26T07:41:51;13.50;74.80
71879;DHT22;59755;43.834;4.364;2023-03-26T07:44:34;13.50;74.40
71879;DHT22;59755;43.834;4.364;2023-03-26T07:47:01;13.40;75.00
71879;DHT22;59755;43.834;4.364;2023-03-26T07:49:33;13.50;74.60
71879;DHT22;59755;43.834;4.364;2023-03-26T07:51:59;13.70;74.40
71879;DHT22;59755;43.834;4.364;2023-03-26T07:54:25;13.70;74.20
71879;DHT22;59755;43.834;4.364;2023-03-26T07:56:55;13.70;74.20
71879;DHT22;59755;43.834;4.364;2023-03-26T08:04:24;13.70;74.10
71879;DHT22;59755;43.834;4.364;2023-03-26T08:19:31;13.90;73.80
71879;DHT22;59755;43.834;4.364;2023-03-26T08:22:05;14.20;72.80
71879;DHT22;59755;43.834;4.364;2023-03-26T08:27:24;14.30;71.70
71879;DHT22;59755;43.834;4.364;2023-03-26T08:29:56;14.30;71.60
71879;DHT22;59755;43.834;4.364;2023-03-26T08:32:26;14.30;71.40
71879;DHT22;59755;43.834;4.364;2023-03-26T08:34:52;14.40;71.60
71879;DHT22;59755;43.834;4.364;2023-03-26T08:37:18;14.50;69.20
71879;DHT22;59755;43.834;4.364;2023-03-26T08:39:43;14.60;68.30
71879;DHT22;59755;43.834;4.364;2023-03-26T08:47:23;15.00;62.50
71879;DHT22;59755;43.834;4.364;2023-03-26T08:49:56;15.20;61.40
71879;DHT22;59755;43.834;4.364;2023-03-26T09:08:11;16.00;54.90
71879;DHT22;59755;43.834;4.364;2023-03-26T09:26:26;16.30;50.50
71879;DHT22;59755;43.834;4.364;2023-03-26T09:28:59;16.30;47.10
71879;DHT22;59755;43.834;4.364;2023-03-26T09:39:23;16.60;42.40
71879;DHT22;59755;43.834;4.364;2023-03-26T09:49:32;17.20;40.30
71879;DHT22;59755;43.834;4.364;2023-03-26T10:04:50;18.80;35.90
71879;DHT22;59755;43.834;4.364;2023-03-26T10:22:52;18.00;37.00
71879;DHT22;59755;43.834;4.364;2023-03-26T10:28:07;17.90;37.50
71879;DHT22;59755;43.834;4.364;2023-03-26T10:51:22;18.30;35.90
71879;DHT22;59755;43.834;4.364;2023-03-26T10:53:39;18.80;35.40
71879;DHT22;59755;43.834;4.364;2023-03-26T10:56:28;19.70;33.90
71879;DHT22;59755;43.834;4.364;2023-03-26T10:58:53;19.60;33.90
71879;DHT22;59755;43.834;4.364;2023-03-26T11:03:46;19.20;34.30
71879;DHT22;59755;43.834;4.364;2023-03-26T11:09:27;18.70;35.50
71879;DHT22;59755;43.834;4.364;2023-03-26T11:14:02;18.60;34.60
71879;DHT22;59755;43.834;4.364;2023-03-26T11:19:01;17.90;35.90
71879;DHT22;59755;43.834;4.364;2023-03-26T11:21:36;17.50;36.60
71879;DHT22;59755;43.834;4.364;2023-03-26T11:26:50;17.10;37.70
71879;DHT22;59755;43.834;4.364;2023-03-26T11:29:38;16.80;38.30
71879;DHT22;59755;43.834;4.364;2023-03-26T11:32:11;16.80;38.30
71879;DHT22;59755;43.834;4.364;2023-03-26T11:35:22;16.80;38.40
71879;DHT22;59755;43.834;4.364;2023-03-26T11:40:08;16.70;41.20
71879;DHT22;59755;43.834;4.364;2023-03-26T11:42:35;16.60;41.60
71879;DHT22;59755;43.834;4.364;2023-03-26T11:45:03;16.20;41.90
71879;DHT22;59755;43.834;4.364;2023-03-26T11:47:31;16.10;42.90
71879;DHT22;59755;43.834;4.364;2023-03-26T11:49:58;16.10;43.60
71879;DHT22;59755;43.834;4.364;2023-03-26T11:52:24;16.20;44.10
71879;DHT22;59755;43.834;4.364;2023-03-26T11:54:51;16.20;44.80
71879;DHT22;59755;43.834;4.364;2023-03-26T11:57:21;16.10;45.20
71879;DHT22;59755;43.834;4.364;2023-03-26T11:59:57;16.10;44.90
71879;DHT22;59755;43.834;4.364;2023-03-26T12:02:29;16.30;43.60
71879;DHT22;59755;43.834;4.364;2023-03-26T12:05:18;16.40;43.80
71879;DHT22;59755;43.834;4.364;2023-03-26T12:07:53;16.50;42.90
71879;DHT22;59755;43.834;4.364;2023-03-26T12:10:28;16.70;43.20
71879;DHT22;59755;43.834;4.364;2023-03-26T12:12:59;17.00;41.60
71879;DHT22;59755;43.834;4.364;2023-03-26T12:15:26;17.30;41.00
71879;DHT22;59755;43.834;4.364;2023-03-26T12:17:54;17.90;39.60
71879;DHT22;59755;43.834;4.364;2023-03-26T12:20:31;18.10;37.80
71879;DHT22;59755;43.834;4.364;2023-03-26T12:22:57;18.00;38.30
71879;DHT22;59755;43.834;4.364;2023-03-26T12:25:24;17.80;38.40
71879;DHT22;59755;43.834;4.364;2023-03-26T12:27:51;17.90;38.20
71879;DHT22;59755;43.834;4.364;2023-03-26T12:32:48;17.30;39.40
71879;DHT22;59755;43.834;4.364;2023-03-26T12:35:35;17.30;39.80
71879;DHT22;59755;43.834;4.364;2023-03-26T12:40:41;19.30;36.70
71879;DHT22;59755;43.834;4.364;2023-03-26T12:43:21;19.50;36.50
71879;DHT22;59755;43.834;4.364;2023-03-26T12:45:48;18.90;38.00
71879;DHT22;59755;43.834;4.364;2023-03-26T12:48:14;17.90;39.90
71879;DHT22;59755;43.834;4.364;2023-03-26T12:55:58;21.20;35.20
71879;DHT22;59755;43.834;4.364;2023-03-26T13:17:01;21.50;33.30
71879;DHT22;59755;43.834;4.364;2023-03-26T13:19:39;24.20;30.40
71879;DHT22;59755;43.834;4.364;2023-03-26T13:25:17;26.40;27.30
71879;DHT22;59755;43.834;4.364;2023-03-26T13:37:36;25.60;28.80
71879;DHT22;59755;43.834;4.364;2023-03-26T13:42:41;25.50;28.90
71879;DHT22;59755;43.834;4.364;2023-03-26T13:45:14;27.00;26.10
71879;DHT22;59755;43.834;4.364;2023-03-26T13:47:42;27.50;25.60
71879;DHT22;59755;43.834;4.364;2023-03-26T13:53:28;24.90;28.80
71879;DHT22;59755;43.834;4.364;2023-03-26T13:55:35;26.20;27.40
71879;DHT22;59755;43.834;4.364;2023-03-26T14:00:31;26.70;27.20
71879;DHT22;59755;43.834;4.364;2023-03-26T14:03:17;27.00;27.00
71879;DHT22;59755;43.834;4.364;2023-03-26T14:05:46;27.30;26.30
71879;DHT22;59755;43.834;4.364;2023-03-26T14:08:20;27.20;26.40
71879;DHT22;59755;43.834;4.364;2023-03-26T14:10:50;27.20;26.40
71879;DHT22;59755;43.834;4.364;2023-03-26T14:13:20;26.20;27.00
71879;DHT22;59755;43.834;4.364;2023-03-26T14:18:33;26.10;27.20
71879;DHT22;59755;43.834;4.364;2023-03-26T14:28:50;26.10;26.80
71879;DHT22;59755;43.834;4.364;2023-03-26T14:41:49;26.00;27.20
71879;DHT22;59755;43.834;4.364;2023-03-26T14:51:56;25.70;27.70
71879;DHT22;59755;43.834;4.364;2023-03-26T14:54:27;26.20;27.30
71879;DHT22;59755;43.834;4.364;2023-03-26T15:02:22;22.10;31.40
71879;DHT22;59755;43.834;4.364;2023-03-26T15:10:10;24.00;29.50
71879;DHT22;59755;43.834;4.364;2023-03-26T15:28:52;24.10;27.50
71879;DHT22;59755;43.834;4.364;2023-03-26T15:44:21;20.20;34.00
71879;DHT22;59755;43.834;4.364;2023-03-26T15:46:55;20.00;34.30
71879;DHT22;59755;43.834;4.364;2023-03-26T15:51:57;19.80;34.90
71879;DHT22;59755;43.834;4.364;2023-03-26T15:57:21;19.10;35.80
71879;DHT22;59755;43.834;4.364;2023-03-26T16:02:26;18.60;37.10
71879;DHT22;59755;43.834;4.364;2023-03-26T16:05:19;18.50;37.90
71879;DHT22;59755;43.834;4.364;2023-03-26T16:07:59;18.20;38.90
71879;DHT22;59755;43.834;4.364;2023-03-26T16:13:40;17.50;41.30
71879;DHT22;59755;43.834;4.364;2023-03-26T16:15:41;17.50;42.00
71879;DHT22;59755;43.834;4.364;2023-03-26T16:20:47;17.70;41.50
71879;DHT22;59755;43.834;4.364;2023-03-26T16:25:53;17.80;38.20
71879;DHT22;59755;43.834;4.364;2023-03-26T16:28:33;17.60;38.10
71879;DHT22;59755;43.834;4.364;2023-03-26T16:41:25;16.90;39.30
71879;DHT22;59755;43.834;4.364;2023-03-26T16:43:57;16.80;39.70
71879;DHT22;59755;43.834;4.364;2023-03-26T16:48:54;16.80;40.20
71879;DHT22;59755;43.834;4.364;2023-03-26T16:51:23;16.80;40.50
71879;DHT22;59755;43.834;4.364;2023-03-26T16:56:44;16.60;41.00
71879;DHT22;59755;43.834;4.364;2023-03-26T17:04:45;16.50;41.20
71879;DHT22;59755;43.834;4.364;2023-03-26T17:07:28;16.50;41.10
71879;DHT22;59755;43.834;4.364;2023-03-26T17:12:54;16.40;41.00
71879;DHT22;59755;43.834;4.364;2023-03-26T17:22:54;16.30;41.30
71879;DHT22;59755;43.834;4.364;2023-03-26T17:30:56;16.20;42.00
71879;DHT22;59755;43.834;4.364;2023-03-26T17:36:13;16.20;42.50
71879;DHT22;59755;43.834;4.364;2023-03-26T17:41:08;16.10;43.40
71879;DHT22;59755;43.834;4.364;2023-03-26T17:43:47;16.00;43.90
71879;DHT22;59755;43.834;4.364;2023-03-26T17:48:59;15.80;44.80
71879;DHT22;59755;43.834;4.364;2023-03-26T17:53:51;15.60;45.90
71879;DHT22;59755;43.834;4.364;2023-03-26T17:56:18;15.40;46.60
71879;DHT22;59755;43.834;4.364;2023-03-26T17:58:48;15.30;46.80
71879;DHT22;59755;43.834;4.364;2023-03-26T18:03:47;15.40;47.00
71879;DHT22;59755;43.834;4.364;2023-03-26T18:16:52;15.20;48.20
71879;DHT22;59755;43.834;4.364;2023-03-26T18:19:17;15.20;48.40
71879;DHT22;59755;43.834;4.364;2023-03-26T18:22:02;15.10;48.60
71879;DHT22;59755;43.834;4.364;2023-03-26T18:24:29;15.10;48.70
71879;DHT22;59755;43.834;4.364;2023-03-26T18:27:02;15.00;49.00
71879;DHT22;59755;43.834;4.364;2023-03-26T18:29:32;15.00;49.20
71879;DHT22;59755;43.834;4.364;2023-03-26T18:34:26;14.90;49.70
71879;DHT22;59755;43.834;4.364;2023-03-26T18:36:58;14.90;49.80
71879;DHT22;59755;43.834;4.364;2023-03-26T18:39:25;14.90;50.00
71879;DHT22;59755;43.834;4.364;2023-03-26T18:41:51;14.80;50.20
71879;DHT22;59755;43.834;4.364;2023-03-26T18:44:17;14.80;50.30
71879;DHT22;59755;43.834;4.364;2023-03-26T18:46:43;14.80;50.40
71879;DHT22;59755;43.834;4.364;2023-03-26T18:49:12;14.70;50.60
71879;DHT22;59755;43.834;4.364;2023-03-26T18:51:39;14.70;50.60
71879;DHT22;59755;43.834;4.364;2023-03-26T18:54:05;14.60;50.80
71879;DHT22;59755;43.834;4.364;2023-03-26T18:56:38;14.50;51.00
71879;DHT22;59755;43.834;4.364;2023-03-26T18:59:05;14.50;51.10
71879;DHT22;59755;43.834;4.364;2023-03-26T19:01:33;14.50;51.20
71879;DHT22;59755;43.834;4.364;2023-03-26T19:04:03;14.40;51.20
71879;DHT22;59755;43.834;4.364;2023-03-26T19:06:30;14.50;51.10
71879;DHT22;59755;43.834;4.364;2023-03-26T19:09:00;14.50;51.10
71879;DHT22;59755;43.834;4.364;2023-03-26T19:11:30;14.50;51.30
71879;DHT22;59755;43.834;4.364;2023-03-26T19:14:00;14.50;51.50
71879;DHT22;59755;43.834;4.364;2023-03-26T19:16:31;14.50;51.60
71879;DHT22;59755;43.834;4.364;2023-03-26T19:19:07;14.40;51.60
71879;DHT22;59755;43.834;4.364;2023-03-26T19:21:33;14.40;51.90
71879;DHT22;59755;43.834;4.364;2023-03-26T19:24:00;14.40;51.90
71879;DHT22;59755;43.834;4.364;2023-03-26T19:26:26;14.40;51.80
71879;DHT22;59755;43.834;4.364;2023-03-26T19:28:53;14.30;52.20
71879;DHT22;59755;43.834;4.364;2023-03-26T19:31:25;14.30;52.50
71879;DHT22;59755;43.834;4.364;2023-03-26T19:33:53;14.20;52.70
71879;DHT22;59755;43.834;4.364;2023-03-26T19:36:19;14.30;52.70
71879;DHT22;59755;43.834;4.364;2023-03-26T19:38:48;14.20;52.70
71879;DHT22;59755;43.834;4.364;2023-03-26T19:41:28;14.20;52.70
71879;DHT22;59755;43.834;4.364;2023-03-26T19:43:55;14.20;53.10
71879;DHT22;59755;43.834;4.364;2023-03-26T19:46:23;14.20;53.30
71879;DHT22;59755;43.834;4.364;2023-03-26T19:48:50;14.20;53.70
71879;DHT22;59755;43.834;4.364;2023-03-26T19:51:39;14.10;54.30
71879;DHT22;59755;43.834;4.364;2023-03-26T19:54:03;14.10;54.80
71879;DHT22;59755;43.834;4.364;2023-03-26T19:56:36;14.10;55.00
71879;DHT22;59755;43.834;4.364;2023-03-26T19:59:01;14.10;55.10
71879;DHT22;59755;43.834;4.364;2023-03-26T20:01:28;14.10;55.30
71879;DHT22;59755;43.834;4.364;2023-03-26T20:03:55;14.00;55.70
71879;DHT22;59755;43.834;4.364;2023-03-26T20:06:22;14.00;56.00
71879;DHT22;59755;43.834;4.364;2023-03-26T20:08:47;14.00;56.20
71879;DHT22;59755;43.834;4.364;2023-03-26T20:11:20;14.00;56.30
71879;DHT22;59755;43.834;4.364;2023-03-26T20:13:47;13.90;56.60
71879;DHT22;59755;43.834;4.364;2023-03-26T20:18:42;14.00;56.90
71879;DHT22;59755;43.834;4.364;2023-03-26T20:21:08;13.90;56.90
71879;DHT22;59755;43.834;4.364;2023-03-26T20:23:34;13.70;57.20
71879;DHT22;59755;43.834;4.364;2023-03-26T20:26:00;13.70;56.40
71879;DHT22;59755;43.834;4.364;2023-03-26T20:28:25;13.60;56.40
71879;DHT22;59755;43.834;4.364;2023-03-26T20:30:51;13.70;56.50
71879;DHT22;59755;43.834;4.364;2023-03-26T20:33:22;13.50;57.00
71879;DHT22;59755;43.834;4.364;2023-03-26T20:35:53;13.40;57.40
71879;DHT22;59755;43.834;4.364;2023-03-26T20:38:19;13.40;57.30
71879;DHT22;59755;43.834;4.364;2023-03-26T20:40:45;13.30;57.40
71879;DHT22;59755;43.834;4.364;2023-03-26T20:43:11;13.30;57.60
71879;DHT22;59755;43.834;4.364;2023-03-26T20:45:37;13.30;57.30
71879;DHT22;59755;43.834;4.364;2023-03-26T20:48:03;13.20;57.30
71879;DHT22;59755;43.834;4.364;2023-03-26T20:50:28;13.20;57.50
71879;DHT22;59755;43.834;4.364;2023-03-26T20:52:55;13.20;57.50
71879;DHT22;59755;43.834;4.364;2023-03-26T20:55:20;13.10;57.80
71879;DHT22;59755;43.834;4.364;2023-03-26T20:57:46;13.20;57.40
71879;DHT22;59755;43.834;4.364;2023-03-26T21:00:12;13.30;57.30
71879;DHT22;59755;43.834;4.364;2023-03-26T21:02:50;13.30;57.20
71879;DHT22;59755;43.834;4.364;2023-03-26T21:05:17;13.30;57.20
71879;DHT22;59755;43.834;4.364;2023-03-26T21:07:55;13.20;57.50
71879;DHT22;59755;43.834;4.364;2023-03-26T21:10:21;13.20;57.30
71879;DHT22;59755;43.834;4.364;2023-03-26T21:13:51;13.20;57.30
71879;DHT22;59755;43.834;4.364;2023-03-26T21:15:43;13.20;57.40
71879;DHT22;59755;43.834;4.364;2023-03-26T21:18:09;13.10;57.60
71879;DHT22;59755;43.834;4.364;2023-03-26T21:20:35;13.20;57.60
71879;DHT22;59755;43.834;4.364;2023-03-26T21:23:22;13.10;57.80
71879;DHT22;59755;43.834;4.364;2023-03-26T21:30:54;13.10;58.40
71879;DHT22;59755;43.834;4.364;2023-03-26T21:33:20;13.10;58.40
71879;DHT22;59755;43.834;4.364;2023-03-26T21:35:46;13.00;58.50
71879;DHT22;59755;43.834;4.364;2023-03-26T21:38:20;12.90;58.80
71879;DHT22;59755;43.834;4.364;2023-03-26T21:40:49;12.90;59.50